Time;durP1;ratioP1;P1;durP2;ratioP2;P2;SDS_P1;SDS_P2;PMS_P1;PMS_P2;Temp;Humidity;BMP_temperature;BMP_pressure;BME280_temperature;BME280_humidity;BME280_pressure;Samples;Min_cycle;Max_cycle;Signal;HPM_P1;HPM_P2
2022/11/29 00:01:28;;;;;;;;;;;;;;;4.87;100.00;101438.34;6246999;23;19912;-79
2022/11/29 00:04:21;;;;;;;;;;;;;;;4.84;100.00;101438.31;6247023;23;19916;-78
2022/11/29 00:07:04;;;;;;;;;;;;;;;4.85;100.00;101445.22;6246308;23;19958;-79
2022/11/29 00:09:57;;;;;;;;;;;;;;;4.85;100.00;101449.50;6247228;23;19978;-79
2022/11/29 00:12:26;;;;;;;;;;;;;;;4.84;100.00;101440.00;6245323;22;19912;-79
2022/11/29 00:18:13;;;;;;;;;;;;;;;4.84;100.00;101451.22;6154253;23;19958;-78
2022/11/29 00:20:44;;;;;;;;;;;;;;;4.82;100.00;101455.50;6153325;23;19913;-79
2022/11/29 00:23:15;;;;;;;;;;;;;;;4.81;100.00;101458.09;6154154;23;19995;-79
2022/11/29 00:25:53;;;;;;;;;;;;;;;4.81;100.00;101458.94;6154157;23;19913;-79
2022/11/29 00:28:21;;;;;;;;;;;;;;;4.79;100.00;101458.06;6176494;23;20331;-79
2022/11/29 00:31:17;;;;;;;;;;;;;;;4.78;100.00;101448.59;6247120;23;19912;-79
2022/11/29 00:33:42;;;;;;;;;;;;;;;4.78;100.00;101456.34;6245733;23;20320;-79
2022/11/29 00:39:24;;;;;;;;;;;;;;;4.77;100.00;101462.34;6123521;23;19912;-79
2022/11/29 00:41:58;;;;;;;;;;;;;;;4.75;100.00;101461.47;6237874;23;19987;-79
2022/11/29 00:44:41;;;;;;;;;;;;;;;4.75;100.00;101456.31;6246331;23;20404;-79
2022/11/29 00:47:41;;;;;;;;;;;;;;;4.77;100.00;101464.91;6245528;23;19946;-79
2022/11/29 00:50:32;;;;;;;;;;;;;;;4.76;100.00;101449.41;6212504;23;19946;-79
2022/11/29 00:53:06;;;;;;;;;;;;;;;4.74;100.00;101452.00;6246645;23;19919;-79
2022/11/29 00:55:37;;;;;;;;;;;;;;;4.73;100.00;101454.53;6244036;22;19982;-79
2022/11/29 00:58:18;;;;;;;;;;;;;;;4.74;100.00;101461.44;6218641;23;20252;-79
2022/11/29 01:01:07;;;;;;;;;;;;;;;4.73;100.00;101447.66;6218604;23;19912;-79
2022/11/29 01:03:33;;;;;;;;;;;;;;;4.71;100.00;101451.97;6218788;23;20041;-79
2022/11/29 01:06:06;;;;;;;;;;;;;;;4.71;100.00;101454.53;6218133;23;20320;-79
2022/11/29 01:08:31;;;;;;;;;;;;;;;4.70;100.00;101455.38;6217718;23;19982;-79
2022/11/29 01:11:02;;;;;;;;;;;;;;;4.69;100.00;101451.06;6218481;23;20324;-79
2022/11/29 01:13:27;;;;;;;;;;;;;;;4.66;100.00;101458.78;6218301;23;19919;-79
2022/11/29 01:16:05;;;;;;;;;;;;;;;4.65;100.00;101459.66;6217513;23;19912;-79
2022/11/29 01:18:59;;;;;;;;;;;;;;;4.61;100.00;101461.34;6218290;23;19912;-79
2022/11/29 01:21:33;;;;;;;;;;;;;;;4.58;100.00;101463.88;6218658;23;19939;-79
2022/11/29 01:27:27;;;;;;;;;;;;;;;4.57;100.00;101469.88;6155634;23;19959;-79
2022/11/29 01:33:13;;;;;;;;;;;;;;;4.56;100.00;101475.91;6155269;23;19913;-79
2022/11/29 01:35:56;;;;;;;;;;;;;;;4.55;100.00;101470.72;6155464;23;20035;-79
2022/11/29 01:38:43;;;;;;;;;;;;;;;4.55;100.00;101475.88;6219252;22;19926;-79
2022/11/29 01:41:39;;;;;;;;;;;;;;;4.56;100.00;101477.63;6261418;22;20252;-79
2022/11/29 01:44:38;;;;;;;;;;;;;;;4.55;100.00;101475.88;6247234;23;19923;-79
2022/11/29 01:47:12;;;;;;;;;;;;;;;4.55;100.00;101486.22;6248444;23;19912;-79
2022/11/29 01:49:55;;;;;;;;;;;;;;;4.54;100.00;101484.47;6248646;23;19919;-79
2022/11/29 01:52:46;;;;;;;;;;;;;;;4.56;100.00;101493.09;6246181;23;20290;-79
2022/11/29 01:55:43;;;;;;;;;;;;;;;4.58;100.00;101496.59;6248029;23;20320;-79
2022/11/29 01:58:42;;;;;;;;;;;;;;;4.58;100.00;101494.88;6243179;23;20325;-79
2022/11/29 02:07:10;;;;;;;;;;;;;;;4.59;100.00;101508.63;6155579;23;19915;-79
2022/11/29 02:10:01;;;;;;;;;;;;;;;4.62;100.00;101508.69;6155172;23;19912;-78
2022/11/29 02:12:51;;;;;;;;;;;;;;;4.63;100.00;101512.97;6153881;23;19919;-79
2022/11/29 02:15:47;;;;;;;;;;;;;;;4.65;100.00;101511.28;6155146;23;20374;-79
2022/11/29 02:18:41;;;;;;;;;;;;;;;4.68;100.00;101519.94;6155027;23;20279;-79
2022/11/29 02:21:28;;;;;;;;;;;;;;;4.74;100.00;101518.25;6154824;23;19912;-79
2022/11/29 02:24:24;;;;;;;;;;;;;;;4.75;100.00;101520.03;6155271;23;19913;-78
2022/11/29 02:27:04;;;;;;;;;;;;;;;4.79;100.00;101522.66;6154177;23;19912;-79
2022/11/29 02:29:58;;;;;;;;;;;;;;;;;;;;;
2022/11/29 02:36:01;;;;;;;;;;;;;;;4.83;100.00;101518.38;6146976;23;19912;-79
2022/11/29 02:39:02;;;;;;;;;;;;;;;4.83;100.00;101515.78;6154970;23;19991;-79
2022/11/29 02:48:04;;;;;;;;;;;;;;;4.80;100.00;101514.03;6156293;23;19923;-79
2022/11/29 02:50:40;;;;;;;;;;;;;;;4.78;100.00;101525.22;6215850;23;20240;-79
2022/11/29 02:57:16;;;;;;;;;;;;;;;4.72;100.00;101523.44;6216953;23;19946;-79
2022/11/29 02:59:38;;;;;;;;;;;;;;;4.72;100.00;101530.31;6210949;23;19936;-79
2022/11/29 03:02:37;;;;;;;;;;;;;;;4.71;100.00;101526.88;6216128;23;19939;-79
2022/11/29 03:05:29;;;;;;;;;;;;;;;4.69;100.00;101524.25;6216941;23;19912;-79
2022/11/29 03:08:25;;;;;;;;;;;;;;;4.67;100.00;101531.09;6216371;23;19982;-79
2022/11/29 03:11:10;;;;;;;;;;;;;;;4.63;100.00;101533.66;6217095;23;20324;-79
2022/11/29 03:14:06;;;;;;;;;;;;;;;4.59;100.00;101543.06;6217484;23;19916;-79
2022/11/29 03:20:12;;;;;;;;;;;;;;;4.51;100.00;101544.69;6217203;23;20283;-79
2022/11/29 03:22:52;;;;;;;;;;;;;;;4.52;100.00;101553.31;6216493;23;19935;-79
2022/11/29 03:25:36;;;;;;;;;;;;;;;4.51;100.00;101549.84;6217089;23;19912;-79
2022/11/29 03:28:35;;;;;;;;;;;;;;;4.49;100.00;101554.13;6217098;23;19912;-79
2022/11/29 03:31:45;;;;;;;;;;;;;;;4.44;100.00;101555.78;6215990;23;20335;-79
2022/11/29 03:37:51;;;;;;;;;;;;;;;4.37;100.00;101562.56;6153572;23;19920;-79
2022/11/29 03:46:58;;;;;;;;;;;;;;;4.33;100.00;101568.56;6154389;23;19963;-79
2022/11/29 03:53:00;;;;;;;;;;;;;;;4.34;100.00;101578.03;6122235;23;20371;-79
2022/11/29 03:55:25;;;;;;;;;;;;;;;4.33;100.00;101573.72;6137498;23;20218;-79
2022/11/29 03:58:21;;;;;;;;;;;;;;;4.34;100.00;101580.59;6215805;23;19952;-79
2022/11/29 04:01:21;;;;;;;;;;;;;;;4.37;100.00;101582.38;6216959;23;19916;-79
2022/11/29 04:07:24;;;;;;;;;;;;;;;4.39;100.00;101581.56;6216654;23;19919;-79
2022/11/29 04:10:23;;;;;;;;;;;;;;;4.40;100.00;101590.16;6216921;23;20222;-79
2022/11/29 04:13:25;;;;;;;;;;;;;;;4.39;100.00;101593.59;6215391;23;19916;-79
2022/11/29 04:19:26;;;;;;;;;;;;;;;4.38;100.00;101600.47;6215459;23;19987;-79
2022/11/29 04:25:29;;;;;;;;;;;;;;;4.37;100.00;101600.44;6215803;23;20026;-79
2022/11/29 04:27:54;;;;;;;;;;;;;;;4.35;100.00;101597.84;6216192;23;20333;-79
2022/11/29 04:30:19;;;;;;;;;;;;;;;4.33;100.00;101603.84;6216518;23;19915;-79
2022/11/29 04:32:50;;;;;;;;;;;;;;;4.32;100.00;101600.38;6215916;23;19919;-79
2022/11/29 04:35:47;;;;;;;;;;;;;;;4.32;100.00;101600.38;6223093;22;20135;-79
2022/11/29 04:38:43;;;;;;;;;;;;;;;4.31;100.00;101603.78;6269529;22;19915;-79
2022/11/29 04:41:27;;;;;;;;;;;;;;;4.29;100.00;101602.94;6276624;22;19915;-79
2022/11/29 04:44:19;;;;;;;;;;;;;;;4.28;100.00;101605.47;6277787;22;19911;-81
2022/11/29 04:47:03;;;;;;;;;;;;;;;4.25;100.00;101610.59;6276273;22;20323;-81
2022/11/29 04:53:06;;;;;;;;;;;;;;;4.12;100.00;101607.84;6277439;22;20235;-81
2022/11/29 04:56:00;;;;;;;;;;;;;;;4.07;100.00;101614.63;6276410;22;19911;-81
2022/11/29 04:58:56;;;;;;;;;;;;;;;4.00;100.00;101615.38;6277569;22;19935;-81
2022/11/29 05:01:52;;;;;;;;;;;;;;;3.96;100.00;101619.63;6276294;22;20304;-81
2022/11/29 05:04:48;;;;;;;;;;;;;;;3.98;100.00;101622.22;6277574;22;19919;-81
2022/11/29 05:07:48;;;;;;;;;;;;;;;3.98;100.00;101625.66;6276796;22;20208;-81
2022/11/29 05:10:19;;;;;;;;;;;;;;;4.01;100.00;101635.16;6277181;22;19916;-81
2022/11/29 05:16:25;;;;;;;;;;;;;;;4.04;100.00;101631.78;6212463;23;20019;-81
2022/11/29 05:19:09;;;;;;;;;;;;;;;4.07;100.00;101639.56;6213972;23;20256;-81
2022/11/29 05:25:12;;;;;;;;;;;;;;;4.08;100.00;101644.75;6213513;23;19919;-81
2022/11/29 05:28:01;;;;;;;;;;;;;;;4.12;100.00;101650.81;6213542;23;19912;-81
2022/11/29 05:33:52;;;;;;;;;;;;;;;4.16;100.00;101665.53;6153794;23;20352;-81
2022/11/29 05:39:30;;;;;;;;;;;;;;;4.18;100.00;101669.84;6153730;23;19972;-82
2022/11/29 05:42:13;;;;;;;;;;;;;;;4.20;100.00;101664.72;6154878;23;19927;-81
2022/11/29 05:45:06;;;;;;;;;;;;;;;4.18;100.00;101671.56;6154711;23;19919;-81
2022/11/29 05:47:53;;;;;;;;;;;;;;;4.18;100.00;101679.31;6201250;23;19986;-82
2022/11/29 05:50:52;;;;;;;;;;;;;;;4.17;100.00;101669.84;6247291;23;19911;-81
2022/11/29 05:53:44;;;;;;;;;;;;;;;4.18;100.00;101689.63;6248324;23;19912;-81
2022/11/29 05:56:34;;;;;;;;;;;;;;;4.17;100.00;101685.31;6218730;23;19943;-82
2022/11/29 05:59:21;;;;;;;;;;;;;;;4.17;100.00;101686.19;6247522;23;19915;-82
2022/11/29 06:02:11;;;;;;;;;;;;;;;4.15;100.00;101689.56;6248540;23;19919;-81
2022/11/29 06:05:05;;;;;;;;;;;;;;;4.14;100.00;101691.28;6247496;23;19983;-81
2022/11/29 06:07:57;;;;;;;;;;;;;;;4.16;100.00;101697.38;6248060;23;20317;-81
2022/11/29 06:10:52;;;;;;;;;;;;;;;4.14;100.00;101701.63;6248379;23;19915;-82
2022/11/29 06:13:23;;;;;;;;;;;;;;;4.15;100.00;101707.66;6068373;23;19948;-81
2022/11/29 06:21:38;;;;;;;;;;;;;;;4.18;100.00;101720.59;6218236;23;19920;-79
2022/11/29 06:27:37;;;;;;;;;;;;;;;4.20;100.00;101735.28;6205082;22;19926;-79
2022/11/29 06:33:37;;;;;;;;;;;;;;;4.27;100.00;101745.72;6217035;23;19919;-79
2022/11/29 06:54:34;;;;;;;;;;;;;;;4.38;100.00;101762.22;6037750;23;20188;-79
2022/11/29 07:03:46;;;;;;;;;;;;;;;4.41;100.00;101770.94;6217264;23;19958;-79
2022/11/29 07:12:34;;;;;;;;;;;;;;;4.46;100.00;101778.75;6217170;23;19919;-79
2022/11/29 07:27:46;;;;;;;;;;;;;;;4.50;100.00;101797.72;6216537;23;19947;-79
2022/11/29 07:33:46;;;;;;;;;;;;;;;4.56;100.00;101796.13;6125472;23;19940;-79
2022/11/29 07:36:30;;;;;;;;;;;;;;;4.57;100.00;101805.59;6124046;23;19913;-79
2022/11/29 07:38:58;;;;;;;;;;;;;;;4.59;100.00;101808.22;6125101;23;19936;-79
2022/11/29 07:41:37;;;;;;;;;;;;;;;4.59;100.00;101809.09;6125066;23;19964;-79
2022/11/29 07:47:42;;;;;;;;;;;;;;;4.64;100.00;101822.97;6124984;23;19916;-78
2022/11/29 07:50:32;;;;;;;;;;;;;;;4.68;100.00;101832.50;6115925;23;19968;-79
2022/11/29 07:53:39;;;;;;;;;;;;;;;;;;;;;
2022/11/29 07:56:43;;;;;;;;;;;;;;;4.74;100.00;101823.09;6193192;23;19987;-79
2022/11/29 07:59:35;;;;;;;;;;;;;;;4.74;100.00;101821.41;6124843;23;20406;-79
2022/11/29 08:02:27;;;;;;;;;;;;;;;4.78;100.00;101825.75;6124954;23;19947;-79
2022/11/29 08:05:02;;;;;;;;;;;;;;;4.81;100.00;101825.81;6099612;23;19912;-79
2022/11/29 08:07:42;;;;;;;;;;;;;;;4.84;100.00;101825.84;6120111;23;19916;-79
2022/11/29 08:10:33;;;;;;;;;;;;;;;4.85;100.00;101832.75;6123349;23;20237;-79
2022/11/29 08:16:28;;;;;;;;;;;;;;;4.85;100.00;101835.34;6245483;23;19965;-79
2022/11/29 08:19:15;;;;;;;;;;;;;;;4.82;100.00;101840.44;6245872;23;19912;-79
2022/11/29 08:22:01;;;;;;;;;;;;;;;4.80;100.00;101841.28;6246830;23;20328;-79
2022/11/29 08:24:48;;;;;;;;;;;;;;;4.77;100.00;101838.63;6246275;23;19916;-79
2022/11/29 08:27:40;;;;;;;;;;;;;;;4.76;100.00;101842.06;6246944;23;19983;-79
2022/11/29 08:30:17;;;;;;;;;;;;;;;4.76;100.00;101837.78;6246633;23;20343;-79
2022/11/29 08:36:14;;;;;;;;;;;;;;;4.93;100.00;101851.81;6221562;23;20003;-79
2022/11/29 08:38:51;;;;;;;;;;;;;;;5.00;100.00;101849.34;6245866;23;19912;-79
2022/11/29 08:41:29;;;;;;;;;;;;;;;5.01;100.00;101851.09;6193475;23;19919;-79
2022/11/29 08:44:06;;;;;;;;;;;;;;;5.02;100.00;101845.06;6247010;23;19907;-79
2022/11/29 08:50:04;;;;;;;;;;;;;;;5.06;100.00;101859.78;6246835;23;20327;-79
2022/11/29 08:55:45;;;;;;;;;;;;;;;5.13;100.00;101859.91;6216491;23;20339;-79
2022/11/29 08:58:20;;;;;;;;;;;;;;;5.14;100.00;101860.78;6216407;22;19916;-79
2022/11/29 09:01:29;;;;;;;;;;;;;;;;;;;;;
2022/11/29 09:10:40;;;;;;;;;;;;;;;5.18;100.00;101867.72;6123620;23;19919;-79
2022/11/29 09:13:26;;;;;;;;;;;;;;;5.24;100.00;101878.16;6216341;23;20222;-79
2022/11/29 09:16:13;;;;;;;;;;;;;;;5.23;100.00;101871.25;6217230;23;19947;-79
2022/11/29 09:18:54;;;;;;;;;;;;;;;5.27;100.00;101875.63;6218395;23;19912;-79
2022/11/29 09:21:44;;;;;;;;;;;;;;;5.37;100.00;101879.22;6216016;23;19990;-79
2022/11/29 09:24:15;;;;;;;;;;;;;;;5.43;100.00;101881.00;6218491;23;19919;-81
2022/11/29 09:26:41;;;;;;;;;;;;;;;5.51;100.00;101884.56;6218381;23;19944;-81
2022/11/29 09:29:13;;;;;;;;;;;;;;;5.58;100.00;101891.56;6217152;23;19912;-81
2022/11/29 09:32:13;;;;;;;;;;;;;;;5.62;100.00;101893.34;6218440;23;19992;-81
2022/11/29 09:34:56;;;;;;;;;;;;;;;5.68;100.00;101903.78;6090928;23;19912;-82
2022/11/29 09:37:35;;;;;;;;;;;;;;;5.72;100.00;101905.56;6218453;23;19987;-82
2022/11/29 09:40:04;;;;;;;;;;;;;;;5.77;100.00;101909.06;6218109;23;20316;-81
2022/11/29 09:43:08;;;;;;;;;;;;;;;5.79;100.00;101903.94;6217424;23;20355;-82
2022/11/29 09:45:41;;;;;;;;;;;;;;;5.82;100.00;101917.78;6068216;23;19920;-81
2022/11/29 09:48:32;;;;;;;;;;;;;;;5.81;100.00;101918.63;6068158;23;20483;-81
2022/11/29 09:51:28;;;;;;;;;;;;;;;5.86;100.00;101923.88;6067183;23;19913;-82
2022/11/29 09:54:17;;;;;;;;;;;;;;;5.93;100.00;101912.78;6067837;23;19914;-81
2022/11/29 09:59:53;;;;;;;;;;;;;;;6.04;100.00;101912.91;6124405;23;19921;-81
2022/11/29 10:02:44;;;;;;;;;;;;;;;6.08;100.00;101919.84;6125870;23;19917;-81
2022/11/29 10:05:15;;;;;;;;;;;;;;;6.10;100.00;101924.19;6125948;23;19913;-81
2022/11/29 10:07:47;;;;;;;;;;;;;;;6.13;100.00;101919.91;6125616;23;19913;-79
2022/11/29 10:10:45;;;;;;;;;;;;;;;6.15;100.00;101925.97;6140194;23;19912;-79
2022/11/29 10:13:16;;;;;;;;;;;;;;;6.17;100.00;101926.88;6187314;23;19935;-79
2022/11/29 10:15:56;;;;;;;;;;;;;;;6.16;100.00;101928.59;6187709;23;19916;-79
2022/11/29 10:18:40;;;;;;;;;;;;;;;6.23;100.00;101916.59;6187141;23;19913;-79
2022/11/29 10:21:26;;;;;;;;;;;;;;;6.32;100.00;101916.69;6187443;23;19912;-79
2022/11/29 10:23:53;;;;;;;;;;;;;;;6.35;100.00;101921.03;6216996;23;20250;-79
2022/11/29 10:26:23;;;;;;;;;;;;;;;6.35;100.00;101914.13;6217591;23;19912;-79
2022/11/29 10:29:24;;;;;;;;;;;;;;;6.32;100.00;101920.16;6217521;23;19912;-79
2022/11/29 10:32:12;;;;;;;;;;;;;;;6.36;100.00;101920.19;6216478;23;19916;-79
2022/11/29 10:34:44;;;;;;;;;;;;;;;6.39;100.00;101909.84;6217335;23;19959;-79
2022/11/29 10:37:17;;;;;;;;;;;;;;;6.40;100.00;101912.44;6217737;23;19966;-79
2022/11/29 10:40:06;;;;;;;;;;;;;;;6.36;100.00;101912.41;6216286;23;19935;-79
2022/11/29 10:45:21;;;;;;;;;;;;;;;6.32;100.00;101916.69;6216461;23;19986;-79
2022/11/29 10:47:51;;;;;;;;;;;;;;;6.28;100.00;101920.97;6217715;23;20020;-78
2022/11/29 10:50:24;;;;;;;;;;;;;;;6.26;100.00;101919.22;6217684;23;20240;-79
2022/11/29 10:53:08;;;;;;;;;;;;;;;6.27;100.00;101913.16;6216526;23;19911;-79
2022/11/29 10:55:57;;;;;;;;;;;;;;;6.31;100.00;101918.41;6217152;23;20218;-79
2022/11/29 10:58:35;;;;;;;;;;;;;;;6.33;100.00;101921.88;6216927;23;19912;-79
2022/11/29 11:01:15;;;;;;;;;;;;;;;6.35;100.00;101927.09;6215872;23;19997;-79
2022/11/29 11:03:59;;;;;;;;;;;;;;;6.30;100.00;101927.03;6217613;23;19916;-79
2022/11/29 11:06:55;;;;;;;;;;;;;;;6.25;100.00;101923.53;6216809;23;19998;-79
2022/11/29 11:09:51;;;;;;;;;;;;;;;6.23;100.00;101921.75;6217047;23;20335;-79
2022/11/29 11:12:18;;;;;;;;;;;;;;;6.25;100.00;101926.13;6217122;23;20316;-79
2022/11/29 11:14:50;;;;;;;;;;;;;;;6.27;100.00;101919.22;6216056;23;20233;-79
2022/11/29 11:17:24;;;;;;;;;;;;;;;6.27;100.00;101921.81;6216984;23;19919;-79
2022/11/29 11:20:25;;;;;;;;;;;;;;;6.27;100.00;101913.16;6197994;22;19927;-79
2022/11/29 11:22:56;;;;;;;;;;;;;;;6.29;100.00;101935.66;6124819;23;19912;-79
2022/11/29 11:25:27;;;;;;;;;;;;;;;6.29;100.00;101930.47;6125417;23;19929;-79
2022/11/29 11:28:15;;;;;;;;;;;;;;;;;;;;;
2022/11/29 11:31:06;;;;;;;;;;;;;;;6.24;100.00;101939.03;6123536;23;19996;-79
2022/11/29 11:33:56;;;;;;;;;;;;;;;6.20;100.00;101929.50;6125017;23;19975;-78
2022/11/29 11:36:37;;;;;;;;;;;;;;;6.20;100.00;101938.13;6123946;23;20017;-79
2022/11/29 11:39:24;;;;;;;;;;;;;;;6.23;100.00;101938.16;6125021;23;19919;-79
2022/11/29 11:44:51;;;;;;;;;;;;;;;6.31;100.00;101938.25;6125591;23;20080;-79
2022/11/29 11:47:54;;;;;;;;;;;;;;;6.31;100.00;101946.91;6125029;23;19983;-79
2022/11/29 11:50:32;;;;;;;;;;;;;;;6.36;100.00;101949.53;6123962;23;19913;-79
2022/11/29 11:53:23;;;;;;;;;;;;;;;6.41;100.00;101949.56;6147743;22;19994;-79
2022/11/29 11:56:18;;;;;;;;;;;;;;;6.41;100.00;101945.28;6216042;23;19958;-79
2022/11/29 11:58:43;;;;;;;;;;;;;;;6.50;100.00;101957.47;6216689;23;19912;-79
2022/11/29 12:01:11;;;;;;;;;;;;;;;6.65;100.00;101951.59;6216641;23;19966;-79
2022/11/29 12:03:48;;;;;;;;;;;;;;;6.76;100.00;101961.19;6215936;23;19917;-79
2022/11/29 12:06:19;;;;;;;;;;;;;;;6.90;100.00;101963.94;6216459;23;19912;-79
2022/11/29 12:09:30;;;;;;;;;;;;;;;6.92;100.00;101971.72;6216797;23;19994;-79
2022/11/29 12:12:10;;;;;;;;;;;;;;;6.85;100.00;101969.94;6215052;23;19912;-78
2022/11/29 12:15:10;;;;;;;;;;;;;;;6.69;100.00;101971.50;6216747;23;19915;-79
2022/11/29 12:18:13;;;;;;;;;;;;;;;6.57;100.00;101972.22;6215985;23;19920;-79
2022/11/29 12:21:03;;;;;;;;;;;;;;;6.62;100.00;101980.91;6216873;23;19912;-79
2022/11/29 12:23:47;;;;;;;;;;;;;;;6.69;100.00;101976.69;6215911;23;19919;-79
2022/11/29 12:26:30;;;;;;;;;;;;;;;6.83;100.00;101977.69;6216728;23;19919;-79
2022/11/29 12:28:57;;;;;;;;;;;;;;;6.95;100.00;101975.22;6215897;23;21167;-79
2022/11/29 12:31:22;;;;;;;;;;;;;;;7.06;100.00;101979.63;6215164;23;19912;-79
2022/11/29 12:34:11;;;;;;;;;;;;;;;7.07;100.00;101982.25;6216821;23;19919;-79
2022/11/29 12:36:52;;;;;;;;;;;;;;;7.12;100.00;101996.09;6207915;23;19912;-79
2022/11/29 12:39:24;;;;;;;;;;;;;;;7.15;100.00;101993.53;6215969;23;19912;-79
2022/11/29 12:41:49;;;;;;;;;;;;;;;7.13;100.00;101991.78;6216519;23;19908;-79
2022/11/29 12:44:33;;;;;;;;;;;;;;;7.14;100.00;101994.41;6216511;23;19916;-79
2022/11/29 12:47:13;;;;;;;;;;;;;;;7.17;100.00;101999.63;6250676;22;19926;-79
2022/11/29 12:49:40;;;;;;;;;;;;;;;7.19;100.00;101997.03;6277348;22;19997;-78
2022/11/29 12:55:47;;;;;;;;;;;;;;;7.16;100.00;102000.50;6228745;22;19926;-78
2022/11/29 12:58:21;;;;;;;;;;;;;;;7.12;100.00;102000.44;6246953;23;19912;-78
2022/11/29 13:01:15;;;;;;;;;;;;;;;7.06;100.00;102001.22;6245554;23;19923;-79
2022/11/29 13:03:58;;;;;;;;;;;;;;;7.01;100.00;101998.59;6225524;22;19942;-79
2022/11/29 13:06:51;;;;;;;;;;;;;;;6.96;100.00;102000.28;6215698;23;19923;-79
2022/11/29 13:09:19;;;;;;;;;;;;;;;6.97;100.00;102002.03;6215973;23;20344;-78
2022/11/29 13:11:57;;;;;;;;;;;;;;;6.96;100.00;102004.59;6267695;22;19926;-79
2022/11/29 13:14:43;;;;;;;;;;;;;;;6.95;100.00;102008.91;6272335;22;19950;-80
2022/11/29 13:17:30;;;;;;;;;;;;;;;6.94;100.00;102004.59;6246909;23;19916;-79
2022/11/29 13:20:26;;;;;;;;;;;;;;;6.93;100.00;102004.56;6245818;23;20217;-79
2022/11/29 13:29:03;;;;;;;;;;;;;;;6.88;100.00;102006.25;6209687;23;19919;-79
2022/11/29 13:31:41;;;;;;;;;;;;;;;6.86;100.00;102002.75;6247838;23;19939;-78
2022/11/29 13:34:15;;;;;;;;;;;;;;;6.85;100.00;102016.59;6248840;23;19912;-78
2022/11/29 13:40:37;;;;;;;;;;;;;;;6.84;100.00;102020.03;6245296;23;19916;-79
2022/11/29 13:43:29;;;;;;;;;;;;;;;6.81;100.00;102020.88;6246013;23;19912;-79
2022/11/29 13:49:32;;;;;;;;;;;;;;;6.79;100.00;102028.63;6245263;23;19918;-79
2022/11/29 13:52:26;;;;;;;;;;;;;;;6.82;100.00;102026.91;6247008;23;19911;-79
2022/11/29 13:55:10;;;;;;;;;;;;;;;6.83;100.00;102018.28;6239126;23;19951;-79
2022/11/29 14:00:43;;;;;;;;;;;;;;;6.80;100.00;102032.97;6154564;23;19920;-79
2022/11/29 14:03:17;;;;;;;;;;;;;;;6.82;100.00;102025.19;6154306;23;19949;-79
2022/11/29 14:06:20;;;;;;;;;;;;;;;6.81;100.00;102026.06;6155394;23;20326;-79
2022/11/29 14:11:48;;;;;;;;;;;;;;;6.80;100.00;102030.38;6147935;23;19963;-78
2022/11/29 14:14:33;;;;;;;;;;;;;;;6.80;100.00;102026.88;6155114;23;19913;-79
2022/11/29 14:17:36;;;;;;;;;;;;;;;6.80;100.00;102025.19;6154390;23;19943;-79
2022/11/29 14:23:46;;;;;;;;;;;;;;;6.82;100.00;102027.78;6154111;23;19916;-79
2022/11/29 14:26:35;;;;;;;;;;;;;;;6.80;100.00;102027.78;6248000;23;20351;-79
2022/11/29 14:29:28;;;;;;;;;;;;;;;6.77;100.00;102037.25;6248165;23;19915;-78
2022/11/29 14:31:54;;;;;;;;;;;;;;;6.78;100.00;102045.03;6245996;23;19935;-79
2022/11/29 14:34:23;;;;;;;;;;;;;;;6.77;100.00;102043.31;6248264;23;20304;-78
2022/11/29 14:36:51;;;;;;;;;;;;;;;6.78;100.00;102032.06;6248632;23;19915;-79
2022/11/29 14:39:19;;;;;;;;;;;;;;;6.78;100.00;102042.44;6247142;23;20304;-78
2022/11/29 14:42:09;;;;;;;;;;;;;;;6.76;100.00;102049.31;6248780;23;19973;-78
2022/11/29 14:44:41;;;;;;;;;;;;;;;6.76;100.00;102045.84;6247289;23;19912;-81
2022/11/29 14:47:15;;;;;;;;;;;;;;;6.77;100.00;102045.03;6248025;23;19983;-81
2022/11/29 14:49:41;;;;;;;;;;;;;;;6.75;100.00;102049.31;6248042;23;19918;-79
2022/11/29 14:52:08;;;;;;;;;;;;;;;6.75;100.00;102046.72;6246730;23;20341;-79
2022/11/29 14:54:34;;;;;;;;;;;;;;;6.75;100.00;102045.00;6247744;23;19965;-79
2022/11/29 14:57:19;;;;;;;;;;;;;;;6.74;100.00;102045.00;6247378;23;19990;-79
2022/11/29 14:59:52;;;;;;;;;;;;;;;6.72;100.00;102050.13;6246675;23;19915;-79
2022/11/29 15:02:31;;;;;;;;;;;;;;;6.72;100.00;102046.69;6248226;23;19918;-79
2022/11/29 15:04:56;;;;;;;;;;;;;;;6.71;100.00;102045.81;6247926;23;19911;-78
2022/11/29 15:07:29;;;;;;;;;;;;;;;6.70;100.00;102046.69;6246521;23;19918;-79
2022/11/29 15:09:57;;;;;;;;;;;;;;;6.70;100.00;102049.28;6248547;22;19920;-79
2022/11/29 15:12:40;;;;;;;;;;;;;;;6.70;100.00;102050.97;6246310;23;20324;-79
2022/11/29 15:15:33;;;;;;;;;;;;;;;6.70;100.00;102051.88;6247534;23;19911;-79
2022/11/29 15:18:30;;;;;;;;;;;;;;;6.69;100.00;102052.69;6247395;23;20244;-79
2022/11/29 15:21:17;;;;;;;;;;;;;;;6.67;100.00;102049.22;6246870;23;19911;-79
2022/11/29 15:23:42;;;;;;;;;;;;;;;6.67;100.00;102053.53;6247644;23;19915;-79
2022/11/29 15:26:37;;;;;;;;;;;;;;;6.64;100.00;102054.38;6247535;23;20380;-79
2022/11/29 15:29:17;;;;;;;;;;;;;;;6.60;100.00;102052.56;6125568;23;19913;-79
2022/11/29 15:31:59;;;;;;;;;;;;;;;6.58;100.00;102059.47;6125717;23;19913;-78
2022/11/29 15:37:29;;;;;;;;;;;;;;;6.53;100.00;102071.50;6247791;23;20243;-79
2022/11/29 15:40:30;;;;;;;;;;;;;;;6.52;100.00;102057.69;6247531;23;19939;-79
2022/11/29 15:43:43;;;;;;;;;;;;;;;6.53;100.00;102068.91;6247587;23;19936;-79
2022/11/29 15:46:17;;;;;;;;;;;;;;;6.54;100.00;102071.53;6124720;23;20322;-78
2022/11/29 15:48:51;;;;;;;;;;;;;;;6.54;100.00;102073.25;6124237;23;20334;-79
2022/11/29 15:51:19;;;;;;;;;;;;;;;6.53;100.00;102071.50;6124892;23;19957;-78
2022/11/29 15:54:15;;;;;;;;;;;;;;;6.52;100.00;102077.53;6124915;23;19949;-79
2022/11/29 15:57:02;;;;;;;;;;;;;;;6.53;100.00;102074.94;6124208;23;20341;-79
2022/11/29 16:03:07;;;;;;;;;;;;;;;6.49;100.00;102074.91;6124134;23;19975;-78
2022/11/29 16:05:47;;;;;;;;;;;;;;;6.46;100.00;102067.09;6063051;23;19974;-77
2022/11/29 16:08:36;;;;;;;;;;;;;;;6.41;100.00;102071.31;6158593;22;19927;-78
2022/11/29 16:11:26;;;;;;;;;;;;;;;6.35;100.00;102066.97;6154232;23;20353;-79
2022/11/29 16:14:15;;;;;;;;;;;;;;;6.30;100.00;102074.66;6154335;23;19999;-82
2022/11/29 16:16:48;;;;;;;;;;;;;;;6.27;100.00;102076.31;6103549;23;19942;-81
2022/11/29 16:22:39;;;;;;;;;;;;;;;6.25;100.00;102078.03;6095257;23;19920;-80
2022/11/29 16:25:14;;;;;;;;;;;;;;;6.26;100.00;102077.19;6090295;23;19945;-78
2022/11/29 16:31:19;;;;;;;;;;;;;;;6.28;100.00;102081.53;6090459;23;20443;-79
2022/11/29 16:34:22;;;;;;;;;;;;;;;6.29;100.00;102075.50;6094366;23;19913;-79
2022/11/29 16:40:12;;;;;;;;;;;;;;;6.31;100.00;102089.34;6114121;23;20296;-80
2022/11/29 16:45:49;;;;;;;;;;;;;;;6.33;100.00;102095.41;6189720;23;19920;-80
2022/11/29 16:48:30;;;;;;;;;;;;;;;6.35;100.00;102095.44;6215170;23;19994;-80
2022/11/29 16:51:23;;;;;;;;;;;;;;;6.36;100.00;102099.78;6214409;23;19916;-79
2022/11/29 16:53:52;;;;;;;;;;;;;;;6.37;100.00;102101.50;6214992;23;19919;-79
2022/11/29 16:59:26;;;;;;;;;;;;;;;6.33;100.00;102102.31;6214603;23;19958;-79
2022/11/29 17:01:54;;;;;;;;;;;;;;;6.28;100.00;102104.84;6214334;23;20257;-78
2022/11/29 17:04:35;;;;;;;;;;;;;;;6.25;100.00;102101.34;6215709;23;19912;-78
2022/11/29 17:07:07;;;;;;;;;;;;;;;6.25;100.00;102104.81;6214304;23;19922;-79
2022/11/29 17:09:45;;;;;;;;;;;;;;;6.26;100.00;102105.66;6213538;23;19908;-79
2022/11/29 17:12:17;;;;;;;;;;;;;;;6.25;100.00;102104.81;6211551;23;20344;-79
2022/11/29 17:15:21;;;;;;;;;;;;;;;6.24;100.00;102103.03;6177281;23;19965;-80
2022/11/29 17:18:17;;;;;;;;;;;;;;;6.21;100.00;102108.22;6151765;23;19916;-80
2022/11/29 17:20:49;;;;;;;;;;;;;;;6.18;100.00;102110.75;6151394;23;19916;-79
2022/11/29 17:23:14;;;;;;;;;;;;;;;6.17;100.00;102108.97;6152064;23;19913;-80
2022/11/29 17:25:39;;;;;;;;;;;;;;;6.20;100.00;102108.16;6150695;23;19923;-79
2022/11/29 17:28:25;;;;;;;;;;;;;;;6.22;100.00;102109.06;6151112;23;20322;-80
2022/11/29 17:30:51;;;;;;;;;;;;;;;6.21;100.00;102100.44;6153100;23;19913;-80
2022/11/29 17:36:47;;;;;;;;;;;;;;;;;;;;;
2022/11/29 17:39:32;;;;;;;;;;;;;;;6.14;100.00;102114.13;6128231;23;20004;-80